createdAt,value
2023-04-23T00:01:20.699Z,99.90
2023-04-23T00:03:51.375Z,99.90
2023-04-23T00:06:22.498Z,99.90
2023-04-23T00:08:54.011Z,99.90
2023-04-23T00:11:22.819Z,1.00
2023-04-23T00:13:51.439Z,1.00
2023-04-23T00:16:21.421Z,1.00
2023-04-23T00:18:51.221Z,1.00
2023-04-23T00:21:19.552Z,99.90
2023-04-23T00:23:47.974Z,99.90
2023-04-23T00:26:18.497Z,1.00
2023-04-23T00:28:46.691Z,1.00
2023-04-23T00:31:15.030Z,1.00
2023-04-23T00:33:43.349Z,1.00
2023-04-23T00:36:12.965Z,1.00
2023-04-23T00:38:41.162Z,1.00
2023-04-23T00:41:09.928Z,1.00
2023-04-23T00:43:38.608Z,1.00
2023-04-23T00:46:07.386Z,1.00
2023-04-23T00:48:36.304Z,96.70
2023-04-23T00:51:06.009Z,99.90
2023-04-23T00:53:35.541Z,99.90
2023-04-23T00:56:07.014Z,99.90
2023-04-23T00:58:35.646Z,99.90
2023-04-23T01:01:04.787Z,1.00
2023-04-23T01:03:33.828Z,1.00
2023-04-23T01:06:02.417Z,1.00
2023-04-23T01:08:32.617Z,1.00
2023-04-23T01:11:03.878Z,1.00
2023-04-23T01:13:32.282Z,1.00
2023-04-23T01:16:00.811Z,1.00
2023-04-23T01:18:29.792Z,9.10
2023-04-23T01:20:58.028Z,21.20
2023-04-23T01:23:28.251Z,99.90
2023-04-23T01:25:56.810Z,99.90
2023-04-23T01:28:25.323Z,99.90
2023-04-23T01:30:53.957Z,99.90
2023-04-23T01:33:22.302Z,1.00
2023-04-23T01:35:51.357Z,1.00
2023-04-23T01:38:20.930Z,1.00
2023-04-23T01:40:50.581Z,1.00
2023-04-23T01:43:18.929Z,1.00
2023-04-23T01:45:47.270Z,1.00
2023-04-23T01:48:15.976Z,63.80
2023-04-23T01:50:44.852Z,6.30
2023-04-23T01:53:13.046Z,99.90
2023-04-23T01:55:42.248Z,99.90
2023-04-23T01:58:11.877Z,99.90
2023-04-23T02:00:40.142Z,99.90
2023-04-23T02:03:08.520Z,99.90
2023-04-23T02:05:37.849Z,99.90
2023-04-23T02:08:06.171Z,1.00
2023-04-23T02:10:34.566Z,1.00
2023-04-23T02:13:03.448Z,1.00
2023-04-23T02:15:34.154Z,1.00
2023-04-23T02:18:02.394Z,1.00
2023-04-23T02:20:31.165Z,96.90
2023-04-23T02:22:59.517Z,17.10
2023-04-23T02:25:27.877Z,1.00
2023-04-23T02:27:57.665Z,46.30
2023-04-23T02:30:26.159Z,1.00
2023-04-23T02:32:55.841Z,1.00
2023-04-23T02:35:24.633Z,1.00
2023-04-23T02:37:54.228Z,1.00
2023-04-23T02:40:22.908Z,99.90
2023-04-23T02:42:51.471Z,99.90
2023-04-23T02:45:19.654Z,99.90
2023-04-23T02:47:48.119Z,99.90
2023-04-23T02:50:18.068Z,99.90
2023-04-23T02:52:47.926Z,99.90
2023-04-23T02:55:16.347Z,99.90
2023-04-23T02:57:45.549Z,1.00
2023-04-23T03:00:14.972Z,99.90
2023-04-23T03:02:44.815Z,1.00
2023-04-23T03:05:13.291Z,99.90
2023-04-23T03:07:43.806Z,99.90
2023-04-23T03:10:12.474Z,95.70
2023-04-23T03:12:40.746Z,99.90
2023-04-23T03:15:10.329Z,99.90
2023-04-23T03:17:39.579Z,1.00
2023-04-23T03:20:11.597Z,1.00
2023-04-23T03:22:40.775Z,1.00
2023-04-23T03:25:11.369Z,1.00
2023-04-23T03:27:40.859Z,1.00
2023-04-23T03:30:10.770Z,1.00
2023-04-23T03:32:40.458Z,1.00
2023-04-23T03:35:09.945Z,51.10
2023-04-23T03:37:41.389Z,1.00
2023-04-23T03:40:11.616Z,99.90
2023-04-23T03:42:42.244Z,99.90
2023-04-23T03:45:14.297Z,19.10
2023-04-23T03:47:42.834Z,99.90
2023-04-23T03:50:13.642Z,99.90
2023-04-23T03:52:44.877Z,1.00
2023-04-23T03:55:21.981Z,1.00
2023-04-23T03:57:50.370Z,43.30
2023-04-23T04:00:24.765Z,1.00
2023-04-23T04:02:53.543Z,1.00
2023-04-23T04:05:24.393Z,1.00
2023-04-23T04:07:55.805Z,1.00
2023-04-23T04:10:27.191Z,99.90
2023-04-23T04:12:55.364Z,1.00
2023-04-23T04:15:23.955Z,16.80
2023-04-23T04:17:52.205Z,1.00
2023-04-23T04:20:20.643Z,99.90
2023-04-23T04:22:48.988Z,99.90
2023-04-23T04:25:17.275Z,21.70
2023-04-23T04:27:48.070Z,99.90
2023-04-23T04:30:18.235Z,1.00
2023-04-23T04:32:47.457Z,1.00
2023-04-23T04:35:15.908Z,99.90
2023-04-23T04:37:45.017Z,99.90
2023-04-23T04:40:15.233Z,99.90
2023-04-23T04:42:43.553Z,99.90
2023-04-23T04:45:14.645Z,99.90
2023-04-23T04:47:42.923Z,1.00
2023-04-23T04:50:12.321Z,1.00
2023-04-23T04:52:40.577Z,1.00
2023-04-23T04:55:10.175Z,1.00
2023-04-23T04:57:38.353Z,1.00
2023-04-23T05:00:24.454Z,99.90
2023-04-23T05:02:53.214Z,99.90
2023-04-23T05:05:22.917Z,99.90
2023-04-23T05:07:51.569Z,99.90
2023-04-23T05:10:19.847Z,99.90
2023-04-23T05:12:48.289Z,99.90
2023-04-23T05:15:16.607Z,1.00
2023-04-23T05:17:47.292Z,1.00
2023-04-23T05:20:15.562Z,1.00
2023-04-23T05:22:44.355Z,99.90
2023-04-23T05:25:14.454Z,99.90
2023-04-23T05:27:43.161Z,99.90
2023-04-23T05:30:12.334Z,99.90
2023-04-23T05:32:40.757Z,99.90
2023-04-23T05:35:11.056Z,99.90
2023-04-23T05:37:39.330Z,99.90
2023-04-23T05:40:08.562Z,99.90
2023-04-23T05:42:37.620Z,99.90
2023-04-23T05:45:08.755Z,99.90
2023-04-23T05:47:37.840Z,99.90
2023-04-23T05:50:07.283Z,96.60
2023-04-23T05:52:37.575Z,71.70
2023-04-23T05:55:06.901Z,1.00
2023-04-23T05:57:35.077Z,1.00
2023-04-23T06:00:03.838Z,1.00
2023-04-23T06:02:40.605Z,1.00
2023-04-23T06:05:09.824Z,1.00
2023-04-23T06:07:41.193Z,23.20
2023-04-23T06:10:11.000Z,23.60
2023-04-23T06:12:39.943Z,1.00
2023-04-23T06:15:09.951Z,1.00
2023-04-23T06:17:38.440Z,1.00
2023-04-23T06:20:09.076Z,1.00
2023-04-23T06:22:39.390Z,1.00
2023-04-23T06:25:10.298Z,1.00
2023-04-23T06:27:38.657Z,1.00
2023-04-23T06:30:14.374Z,1.00
2023-04-23T06:32:42.687Z,1.00
2023-04-23T06:35:11.160Z,1.00
2023-04-23T06:37:39.338Z,1.00
2023-04-23T06:40:09.937Z,1.00
2023-04-23T06:42:38.225Z,1.00
2023-04-23T06:45:39.416Z,1.00
2023-04-23T06:48:08.126Z,1.00
2023-04-23T06:50:36.379Z,1.00
2023-04-23T06:53:04.774Z,1.00
2023-04-23T06:55:34.745Z,1.00
2023-04-23T06:58:03.572Z,1.00
2023-04-23T07:00:31.842Z,1.00
2023-04-23T07:03:00.935Z,1.00
2023-04-23T07:05:29.325Z,1.00
2023-04-23T07:07:57.491Z,1.00
2023-04-23T07:10:26.451Z,1.00
2023-04-23T07:12:56.647Z,1.00
2023-04-23T07:15:25.838Z,1.00
2023-04-23T07:17:54.080Z,1.00
2023-04-23T07:20:22.338Z,1.00
2023-04-23T07:22:50.700Z,1.00
2023-04-23T07:25:19.386Z,1.00
2023-04-23T07:27:47.562Z,1.00
2023-04-23T07:30:17.835Z,1.00
2023-04-23T07:32:46.177Z,1.00
2023-04-23T07:35:14.445Z,99.90
2023-04-23T07:37:44.073Z,99.90
2023-04-23T07:40:13.221Z,49.20
2023-04-23T07:42:41.530Z,61.40
2023-04-23T07:45:11.513Z,99.90
2023-04-23T07:47:41.258Z,99.90
2023-04-23T07:50:10.552Z,99.90
2023-04-23T07:52:38.995Z,99.90
2023-04-23T07:55:08.251Z,99.90
2023-04-23T07:57:36.623Z,99.90
2023-04-23T08:00:05.609Z,99.90
2023-04-23T08:02:41.588Z,99.90
2023-04-23T08:05:12.577Z,99.90
2023-04-23T08:07:41.090Z,99.90
2023-04-23T08:10:10.182Z,99.90
2023-04-23T08:12:38.457Z,99.90
2023-04-23T08:15:07.829Z,99.90
2023-04-23T08:17:41.907Z,99.90
2023-04-23T08:20:10.868Z,99.90
2023-04-23T08:22:39.070Z,99.90
2023-04-23T08:25:09.480Z,99.90
2023-04-23T08:27:37.955Z,99.90
2023-04-23T08:30:08.717Z,99.90
2023-04-23T08:32:37.291Z,99.90
2023-04-23T08:35:08.072Z,99.90
2023-04-23T08:37:36.543Z,99.90
2023-04-23T08:40:06.208Z,99.90
2023-04-23T08:42:41.338Z,99.90
2023-04-23T08:45:10.419Z,99.90
2023-04-23T08:47:43.202Z,99.90
2023-04-23T08:50:15.200Z,99.90
2023-04-23T08:52:48.591Z,99.90
2023-04-23T08:55:18.935Z,99.90
2023-04-23T08:57:48.316Z,99.90
2023-04-23T09:00:18.999Z,99.90
2023-04-23T09:02:49.564Z,99.90
2023-04-23T09:05:22.916Z,99.90
2023-04-23T09:07:51.133Z,99.90
2023-04-23T09:10:19.596Z,99.90
2023-04-23T09:12:48.406Z,99.90
2023-04-23T09:15:16.780Z,99.90
2023-04-23T09:17:47.186Z,99.90
2023-04-23T09:20:16.701Z,99.90
2023-04-23T09:22:48.565Z,99.90
2023-04-23T09:25:18.487Z,99.90
2023-04-23T09:27:47.614Z,99.90
2023-04-23T09:30:17.306Z,99.90
2023-04-23T09:32:47.469Z,99.90
2023-04-23T09:35:16.744Z,99.90
2023-04-23T09:37:48.846Z,99.90
2023-04-23T09:40:20.365Z,99.90
2023-04-23T09:42:50.673Z,99.90
2023-04-23T09:45:19.374Z,99.90
2023-04-23T09:47:52.804Z,99.90
2023-04-23T09:50:33.927Z,99.90
2023-04-23T09:53:04.230Z,99.90
2023-04-23T09:55:37.504Z,99.90
2023-04-23T09:58:06.685Z,99.90
2023-04-23T10:00:36.446Z,99.90
2023-04-23T10:03:06.855Z,99.90
2023-04-23T10:05:59.703Z,99.90
2023-04-23T10:08:29.421Z,99.90
2023-04-23T10:11:06.581Z,99.90
2023-04-23T10:13:46.124Z,99.90
2023-04-23T10:16:22.350Z,99.90
2023-04-23T10:18:55.526Z,99.90
2023-04-23T10:21:32.155Z,99.90
2023-04-23T10:24:12.105Z,99.90
2023-04-23T10:26:44.145Z,99.90
2023-04-23T10:29:16.683Z,99.90
2023-04-23T10:31:46.827Z,99.90
2023-04-23T10:34:16.785Z,99.90
2023-04-23T10:36:44.993Z,99.90
2023-04-23T10:39:27.286Z,99.90
2023-04-23T10:41:58.614Z,99.90
2023-04-23T10:44:56.758Z,99.90
2023-04-23T10:47:22.935Z,99.90
2023-04-23T10:49:51.749Z,99.90
2023-04-23T10:52:24.384Z,99.90
2023-04-23T10:55:00.938Z,99.90
2023-04-23T10:57:29.232Z,99.90
2023-04-23T10:59:59.013Z,99.90
2023-04-23T11:02:43.890Z,99.90
2023-04-23T11:05:12.223Z,99.90
2023-04-23T11:07:40.469Z,99.90
2023-04-23T11:10:15.291Z,99.90
2023-04-23T11:12:45.339Z,99.90
2023-04-23T11:15:15.181Z,99.90
2023-04-23T11:18:02.851Z,99.90
2023-04-23T11:20:31.284Z,99.90
2023-04-23T11:22:59.535Z,99.90
2023-04-23T11:25:30.591Z,99.90
2023-04-23T11:27:59.624Z,99.90
2023-04-23T11:30:29.452Z,99.90
2023-04-23T11:32:59.964Z,99.90
2023-04-23T11:35:30.671Z,99.90
2023-04-23T11:37:59.152Z,99.90
2023-04-23T11:40:31.125Z,99.90
2023-04-23T11:42:59.516Z,99.90
2023-04-23T11:45:29.330Z,99.90
2023-04-23T11:47:59.383Z,99.90
2023-04-23T11:50:29.796Z,99.90
2023-04-23T11:52:58.420Z,99.90
2023-04-23T11:55:30.091Z,99.90
2023-04-23T11:57:58.845Z,99.90
2023-04-23T12:00:28.392Z,99.90
2023-04-23T12:02:58.163Z,99.90
2023-04-23T12:05:30.625Z,99.90
2023-04-23T12:08:09.095Z,99.90
2023-04-23T12:10:46.332Z,99.90
2023-04-23T12:13:18.738Z,99.90
2023-04-23T12:15:48.497Z,99.90
2023-04-23T12:18:17.096Z,99.90
2023-04-23T12:20:45.386Z,99.90
2023-04-23T12:23:13.926Z,99.90
2023-04-23T12:25:43.021Z,99.90
2023-04-23T12:28:13.600Z,99.90
2023-04-23T12:30:45.576Z,99.90
2023-04-23T12:33:14.050Z,99.90
2023-04-23T12:35:43.002Z,99.90
2023-04-23T12:38:23.777Z,99.90
2023-04-23T12:40:52.181Z,99.90
2023-04-23T12:43:21.865Z,99.90
2023-04-23T12:45:50.409Z,99.90
2023-04-23T12:48:18.763Z,99.90
2023-04-23T12:50:47.559Z,99.90
2023-04-23T12:53:16.542Z,99.90
2023-04-23T12:55:46.018Z,99.90
2023-04-23T12:58:14.397Z,99.90
2023-04-23T13:00:44.346Z,99.90
2023-04-23T13:03:14.226Z,99.90
2023-04-23T13:05:42.762Z,99.90
2023-04-23T13:08:10.948Z,99.90
2023-04-23T13:10:39.104Z,99.90
2023-04-23T13:13:07.406Z,99.90
2023-04-23T13:15:35.662Z,99.90
2023-04-23T13:18:05.578Z,99.90
2023-04-23T13:20:33.827Z,99.90
2023-04-23T13:23:03.113Z,99.90
2023-04-23T13:25:31.349Z,99.90
2023-04-23T13:27:59.605Z,99.90
2023-04-23T13:30:27.912Z,99.90
2023-04-23T13:32:57.734Z,99.90
2023-04-23T13:35:27.501Z,99.90
2023-04-23T13:37:55.737Z,99.90
2023-04-23T13:40:23.886Z,99.90
2023-04-23T13:42:53.275Z,99.90
2023-04-23T13:45:21.637Z,99.90
2023-04-23T13:47:49.865Z,99.90
2023-04-23T13:50:18.142Z,99.60
2023-04-23T13:52:49.385Z,99.90
2023-04-23T13:55:17.948Z,99.40
2023-04-23T13:57:46.288Z,98.00
2023-04-23T14:00:15.388Z,96.40
2023-04-23T14:02:43.660Z,96.50
2023-04-23T14:05:12.199Z,96.10
2023-04-23T14:07:40.458Z,95.80
2023-04-23T14:10:10.972Z,95.80
2023-04-23T14:12:39.682Z,96.00
2023-04-23T14:15:09.062Z,96.10
2023-04-23T14:17:39.375Z,96.60
2023-04-23T14:20:09.342Z,96.60
2023-04-23T14:22:38.020Z,97.00
2023-04-23T14:25:13.148Z,96.70
2023-04-23T14:27:45.711Z,97.10
2023-04-23T14:30:18.282Z,96.80
2023-04-23T14:32:49.454Z,95.50
2023-04-23T14:35:24.495Z,95.60
2023-04-23T14:37:57.704Z,95.70
2023-04-23T14:40:27.228Z,95.40
2023-04-23T14:42:59.232Z,96.20
2023-04-23T14:45:33.187Z,95.40
2023-04-23T14:48:01.740Z,95.50
2023-04-23T14:50:29.982Z,95.40
2023-04-23T14:52:59.024Z,96.40
2023-04-23T14:55:28.817Z,95.20
2023-04-23T14:57:57.065Z,94.80
2023-04-23T15:00:25.397Z,94.30
2023-04-23T15:02:53.733Z,95.20
2023-04-23T15:05:22.234Z,95.60
2023-04-23T15:07:51.543Z,94.60
2023-04-23T15:10:22.470Z,95.60
2023-04-23T15:12:57.999Z,94.70
2023-04-23T15:15:43.144Z,94.40
2023-04-23T15:18:13.031Z,94.10
2023-04-23T15:20:41.298Z,93.90
2023-04-23T15:23:10.083Z,93.30
2023-04-23T15:25:39.388Z,94.70
2023-04-23T15:28:09.576Z,94.10
2023-04-23T15:30:39.759Z,94.40
2023-04-23T15:33:08.116Z,94.30
2023-04-23T15:35:36.382Z,94.90
2023-04-23T15:38:04.723Z,93.50
2023-04-23T15:40:42.203Z,93.70
2023-04-23T15:43:14.425Z,93.90
2023-04-23T15:45:43.742Z,93.30
2023-04-23T15:48:11.967Z,92.80
2023-04-23T15:50:40.228Z,92.80
2023-04-23T15:53:08.645Z,92.80
2023-04-23T15:55:38.970Z,94.60
2023-04-23T15:58:07.786Z,95.30
2023-04-23T16:00:37.603Z,92.60
2023-04-23T16:03:06.721Z,99.90
2023-04-23T16:05:36.666Z,99.90
2023-04-23T16:08:05.163Z,92.40
2023-04-23T16:10:34.689Z,90.50
2023-04-23T16:13:03.820Z,89.40
2023-04-23T16:15:32.154Z,90.00
2023-04-23T16:18:01.808Z,90.80
2023-04-23T16:20:30.099Z,92.80
2023-04-23T16:22:58.282Z,90.10
2023-04-23T16:25:26.553Z,89.50
2023-04-23T16:27:55.241Z,90.70
2023-04-23T16:30:23.510Z,89.40
2023-04-23T16:32:52.374Z,89.80
2023-04-23T16:35:22.391Z,87.70
2023-04-23T16:37:50.625Z,88.50
2023-04-23T16:40:19.372Z,99.40
2023-04-23T16:42:49.762Z,88.60
2023-04-23T16:45:22.938Z,88.50
2023-04-23T16:47:52.366Z,87.10
2023-04-23T16:50:23.183Z,87.60
2023-04-23T16:52:52.077Z,87.40
2023-04-23T16:55:20.796Z,85.50
2023-04-23T16:57:49.202Z,86.90
2023-04-23T17:00:18.154Z,87.00
2023-04-23T17:02:46.442Z,87.10
2023-04-23T17:05:15.613Z,87.60
2023-04-23T17:07:46.486Z,91.90
2023-04-23T17:10:15.579Z,92.00
2023-04-23T17:12:43.891Z,92.40
2023-04-23T17:15:12.929Z,88.50
2023-04-23T17:17:41.179Z,87.20
2023-04-23T17:20:10.208Z,86.90
2023-04-23T17:22:38.597Z,92.00
2023-04-23T17:25:09.945Z,88.10
2023-04-23T17:27:38.228Z,94.20
2023-04-23T17:30:08.745Z,87.90
2023-04-23T17:32:37.130Z,87.40
2023-04-23T17:35:10.656Z,81.10
2023-04-23T17:37:39.246Z,78.30
2023-04-23T17:40:10.926Z,79.00
2023-04-23T17:42:39.835Z,88.50
2023-04-23T17:45:09.110Z,89.90
2023-04-23T17:47:37.646Z,88.20
2023-04-23T17:50:09.534Z,88.20
2023-04-23T17:52:37.778Z,90.20
2023-04-23T17:55:06.621Z,85.60
2023-04-23T17:57:36.551Z,88.10
2023-04-23T18:00:09.672Z,91.50
2023-04-23T18:02:41.695Z,87.20
2023-04-23T18:05:11.010Z,86.90
2023-04-23T18:07:40.181Z,87.10
2023-04-23T18:10:09.912Z,90.10
2023-04-23T18:12:40.145Z,89.00
2023-04-23T18:15:12.347Z,88.80
2023-04-23T18:17:40.851Z,88.90
2023-04-23T18:20:10.296Z,90.10
2023-04-23T18:22:39.434Z,89.50
2023-04-23T18:25:10.077Z,90.60
2023-04-23T18:27:39.976Z,90.50
2023-04-23T18:30:09.632Z,91.10
2023-04-23T18:32:43.160Z,92.30
2023-04-23T18:35:11.760Z,92.70
2023-04-23T18:37:44.725Z,92.90
2023-04-23T18:40:13.176Z,92.20
2023-04-23T18:42:43.165Z,92.20
2023-04-23T18:45:12.400Z,91.70
2023-04-23T18:47:50.635Z,91.00
2023-04-23T18:50:38.031Z,91.40
2023-04-23T18:53:06.526Z,92.30
2023-04-23T18:55:34.762Z,92.30
2023-04-23T18:58:04.474Z,92.60
2023-04-23T19:00:32.912Z,93.40
2023-04-23T19:03:06.526Z,92.80
2023-04-23T19:05:37.673Z,94.30
2023-04-23T19:08:06.016Z,95.00
2023-04-23T19:10:38.757Z,95.40
2023-04-23T19:13:09.006Z,96.10
2023-04-23T19:15:37.292Z,96.80
2023-04-23T19:18:06.301Z,94.60
2023-04-23T19:20:36.128Z,95.60
2023-04-23T19:23:05.197Z,96.10
2023-04-23T19:25:33.403Z,95.50
2023-04-23T19:28:01.732Z,95.70
2023-04-23T19:30:32.355Z,95.80
2023-04-23T19:33:00.646Z,97.10
2023-04-23T19:35:29.039Z,98.10
2023-04-23T19:37:57.396Z,99.10
2023-04-23T19:40:25.737Z,98.50
2023-04-23T19:42:54.241Z,99.90
2023-04-23T19:45:22.988Z,99.90
2023-04-23T19:47:52.893Z,99.90
2023-04-23T19:50:21.484Z,99.90
2023-04-23T19:52:50.324Z,99.90
2023-04-23T19:55:22.168Z,99.90
2023-04-23T19:57:50.464Z,99.90
2023-04-23T20:00:23.756Z,99.90
2023-04-23T20:02:55.467Z,99.90
2023-04-23T20:05:23.896Z,99.90
2023-04-23T20:07:52.842Z,99.90
2023-04-23T20:10:21.290Z,99.90
2023-04-23T20:12:49.533Z,99.90
2023-04-23T20:15:17.730Z,99.90
2023-04-23T20:17:46.161Z,99.90
2023-04-23T20:20:15.849Z,99.90
2023-04-23T20:22:44.146Z,99.90
2023-04-23T20:25:13.340Z,99.90
2023-04-23T20:27:41.767Z,99.90
2023-04-23T20:30:12.250Z,99.90
2023-04-23T20:32:40.575Z,99.90
2023-04-23T20:35:09.612Z,99.90
2023-04-23T20:37:39.356Z,99.90
2023-04-23T20:40:10.661Z,99.90
2023-04-23T20:42:39.749Z,99.90
2023-04-23T20:45:09.581Z,99.90
2023-04-23T20:47:37.961Z,99.90
2023-04-23T20:50:07.217Z,99.90
2023-04-23T20:52:36.191Z,99.90
2023-04-23T20:55:06.398Z,99.90
2023-04-23T20:57:37.014Z,99.90
2023-04-23T21:00:11.676Z,99.90
2023-04-23T21:02:40.397Z,99.90
2023-04-23T21:05:12.558Z,99.90
2023-04-23T21:07:40.869Z,99.90
2023-04-23T21:10:11.699Z,99.90
2023-04-23T21:12:40.318Z,99.90
2023-04-23T21:15:12.616Z,99.90
2023-04-23T21:17:41.117Z,99.90
2023-04-23T21:20:10.689Z,99.90
2023-04-23T21:22:38.926Z,99.90
2023-04-23T21:25:08.063Z,99.90
2023-04-23T21:27:38.184Z,99.90
2023-04-23T21:30:11.090Z,99.90
2023-04-23T21:32:39.566Z,99.90
2023-04-23T21:35:08.725Z,99.90
2023-04-23T21:37:38.043Z,99.90
2023-04-23T21:40:07.942Z,99.90
2023-04-23T21:42:37.844Z,99.90
2023-04-23T21:45:07.319Z,99.90
2023-04-23T21:47:35.630Z,99.90
2023-04-23T21:50:05.248Z,99.90
2023-04-23T21:52:33.874Z,99.90
2023-04-23T21:55:02.299Z,99.90
2023-04-23T21:57:30.522Z,99.90
2023-04-23T22:00:00.198Z,99.90
2023-04-23T22:02:28.750Z,99.90
2023-04-23T22:04:57.647Z,99.90
2023-04-23T22:07:26.903Z,99.90
2023-04-23T22:09:57.169Z,99.90
2023-04-23T22:12:25.807Z,99.90
2023-04-23T22:14:54.015Z,99.90
2023-04-23T22:17:25.876Z,99.90
2023-04-23T22:19:54.447Z,99.90
2023-04-23T22:22:22.613Z,99.90
2023-04-23T22:24:50.822Z,99.90
2023-04-23T22:27:19.195Z,99.90
2023-04-23T22:29:47.449Z,99.90
2023-04-23T22:32:15.700Z,99.90
2023-04-23T22:34:45.509Z,99.90
2023-04-23T22:37:13.846Z,99.90
2023-04-23T22:39:42.295Z,99.90
2023-04-23T22:42:10.672Z,99.90
2023-04-23T22:44:39.036Z,99.90
2023-04-23T22:47:07.368Z,99.90
2023-04-23T22:49:35.907Z,99.90
2023-04-23T22:52:05.728Z,99.90
2023-04-23T22:54:33.908Z,99.90
2023-04-23T22:57:02.219Z,99.90
2023-04-23T22:59:31.236Z,99.90
2023-04-23T23:01:59.662Z,99.90
2023-04-23T23:04:28.048Z,99.90
2023-04-23T23:06:56.417Z,99.90
2023-04-23T23:09:26.071Z,99.90
2023-04-23T23:11:54.339Z,99.90
2023-04-23T23:14:23.228Z,99.90
2023-04-23T23:16:51.505Z,99.90
2023-04-23T23:19:19.655Z,99.90
2023-04-23T23:21:47.860Z,99.90
2023-04-23T23:24:16.314Z,99.90
2023-04-23T23:26:46.731Z,99.90
2023-04-23T23:29:14.926Z,99.90
2023-04-23T23:31:43.342Z,99.90
2023-04-23T23:34:11.571Z,99.90
2023-04-23T23:36:39.808Z,99.90
2023-04-23T23:39:08.114Z,99.90
2023-04-23T23:41:36.342Z,99.90
2023-04-23T23:44:05.866Z,99.90
2023-04-23T23:46:34.145Z,99.90
2023-04-23T23:49:02.582Z,99.90
2023-04-23T23:51:31.124Z,99.90
2023-04-23T23:53:59.372Z,99.90
2023-04-23T23:56:27.721Z,99.90
2023-04-23T23:58:55.951Z,99.90
